sensor_id;sensor_type;location;lat;lon;timestamp;temperature;humidity
10133;DHT22;5106;50.926;7.080;2024-01-15T00:02:12;1.30;96.50
10133;DHT22;5106;50.926;7.080;2024-01-15T00:04:38;1.30;96.50
10133;DHT22;5106;50.926;7.080;2024-01-15T00:07:08;1.30;96.50
10133;DHT22;5106;50.926;7.080;2024-01-15T00:09:34;1.20;96.50
10133;DHT22;5106;50.926;7.080;2024-01-15T00:12:00;1.20;96.50
10133;DHT22;5106;50.926;7.080;2024-01-15T00:14:26;1.10;96.50
10133;DHT22;5106;50.926;7.080;2024-01-15T00:16:52;1.10;96.50
10133;DHT22;5106;50.926;7.080;2024-01-15T00:19:18;1.00;96.50
10133;DHT22;5106;50.926;7.080;2024-01-15T00:21:44;1.00;96.50
10133;DHT22;5106;50.926;7.080;2024-01-15T00:24:10;1.00;96.50
10133;DHT22;5106;50.926;7.080;2024-01-15T00:26:35;0.90;96.50
10133;DHT22;5106;50.926;7.080;2024-01-15T00:29:01;0.90;96.50
10133;DHT22;5106;50.926;7.080;2024-01-15T00:31:28;0.80;96.50
10133;DHT22;5106;50.926;7.080;2024-01-15T00:33:55;0.90;96.50
10133;DHT22;5106;50.926;7.080;2024-01-15T00:36:21;0.90;96.50
10133;DHT22;5106;50.926;7.080;2024-01-15T00:38:47;0.80;96.50
10133;DHT22;5106;50.926;7.080;2024-01-15T00:41:13;0.80;96.50
10133;DHT22;5106;50.926;7.080;2024-01-15T00:43:39;0.80;96.50
10133;DHT22;5106;50.926;7.080;2024-01-15T00:46:04;0.80;96.50
10133;DHT22;5106;50.926;7.080;2024-01-15T00:48:30;0.80;96.50
10133;DHT22;5106;50.926;7.080;2024-01-15T00:50:56;0.70;96.50
10133;DHT22;5106;50.926;7.080;2024-01-15T00:53:21;0.70;96.50
10133;DHT22;5106;50.926;7.080;2024-01-15T00:55:48;0.70;96.50
10133;DHT22;5106;50.926;7.080;2024-01-15T00:58:14;0.60;96.50
10133;DHT22;5106;50.926;7.080;2024-01-15T01:00:39;0.60;96.50
10133;DHT22;5106;50.926;7.080;2024-01-15T01:03:06;0.60;96.50
10133;DHT22;5106;50.926;7.080;2024-01-15T01:05:33;0.60;96.50
10133;DHT22;5106;50.926;7.080;2024-01-15T01:07:58;0.60;96.50
10133;DHT22;5106;50.926;7.080;2024-01-15T01:10:25;0.60;96.50
10133;DHT22;5106;50.926;7.080;2024-01-15T01:12:50;0.60;96.50
10133;DHT22;5106;50.926;7.080;2024-01-15T01:15:16;0.60;96.50
10133;DHT22;5106;50.926;7.080;2024-01-15T01:17:42;0.60;96.50
10133;DHT22;5106;50.926;7.080;2024-01-15T01:20:08;0.60;96.50
10133;DHT22;5106;50.926;7.080;2024-01-15T01:22:34;0.60;96.50
10133;DHT22;5106;50.926;7.080;2024-01-15T01:25:00;0.70;96.50
10133;DHT22;5106;50.926;7.080;2024-01-15T01:27:26;0.70;96.50
10133;DHT22;5106;50.926;7.080;2024-01-15T01:29:51;0.70;96.50
10133;DHT22;5106;50.926;7.080;2024-01-15T01:32:17;0.70;96.50
10133;DHT22;5106;50.926;7.080;2024-01-15T01:34:43;0.70;96.50
10133;DHT22;5106;50.926;7.080;2024-01-15T01:37:09;0.70;96.50
10133;DHT22;5106;50.926;7.080;2024-01-15T01:39:35;0.70;96.50
10133;DHT22;5106;50.926;7.080;2024-01-15T01:42:01;0.70;96.50
10133;DHT22;5106;50.926;7.080;2024-01-15T01:44:26;0.70;96.50
10133;DHT22;5106;50.926;7.080;2024-01-15T01:46:52;0.70;96.50
10133;DHT22;5106;50.926;7.080;2024-01-15T01:49:18;0.70;96.50
10133;DHT22;5106;50.926;7.080;2024-01-15T01:51:44;0.70;96.50
10133;DHT22;5106;50.926;7.080;2024-01-15T01:54:10;0.70;96.50
10133;DHT22;5106;50.926;7.080;2024-01-15T01:56:40;0.70;96.50
10133;DHT22;5106;50.926;7.080;2024-01-15T01:59:06;0.70;96.50
10133;DHT22;5106;50.926;7.080;2024-01-15T02:01:33;0.70;96.50
10133;DHT22;5106;50.926;7.080;2024-01-15T02:03:58;0.70;96.50
10133;DHT22;5106;50.926;7.080;2024-01-15T02:06:25;0.70;96.50
10133;DHT22;5106;50.926;7.080;2024-01-15T02:08:50;0.70;96.50
10133;DHT22;5106;50.926;7.080;2024-01-15T02:11:16;0.70;96.50
10133;DHT22;5106;50.926;7.080;2024-01-15T02:13:41;0.80;96.50
10133;DHT22;5106;50.926;7.080;2024-01-15T02:16:07;0.80;96.50
10133;DHT22;5106;50.926;7.080;2024-01-15T02:18:43;0.80;96.50
10133;DHT22;5106;50.926;7.080;2024-01-15T02:21:10;0.80;96.50
10133;DHT22;5106;50.926;7.080;2024-01-15T02:23:36;0.80;96.50
10133;DHT22;5106;50.926;7.080;2024-01-15T02:26:02;0.80;96.50
10133;DHT22;5106;50.926;7.080;2024-01-15T02:28:27;0.80;96.50
10133;DHT22;5106;50.926;7.080;2024-01-15T02:30:53;0.90;96.50
10133;DHT22;5106;50.926;7.080;2024-01-15T02:33:19;0.90;96.50
10133;DHT22;5106;50.926;7.080;2024-01-15T02:35:44;0.90;96.50
10133;DHT22;5106;50.926;7.080;2024-01-15T02:38:11;1.00;96.50
10133;DHT22;5106;50.926;7.080;2024-01-15T02:40:38;1.00;96.50
10133;DHT22;5106;50.926;7.080;2024-01-15T02:43:04;1.00;96.50
10133;DHT22;5106;50.926;7.080;2024-01-15T02:45:29;1.00;96.50
10133;DHT22;5106;50.926;7.080;2024-01-15T02:47:55;1.00;96.50
10133;DHT22;5106;50.926;7.080;2024-01-15T02:50:21;1.00;96.50
10133;DHT22;5106;50.926;7.080;2024-01-15T02:52:47;1.00;96.50
10133;DHT22;5106;50.926;7.080;2024-01-15T02:55:12;1.00;96.50
10133;DHT22;5106;50.926;7.080;2024-01-15T02:57:38;1.00;96.50
10133;DHT22;5106;50.926;7.080;2024-01-15T03:00:04;1.00;96.50
10133;DHT22;5106;50.926;7.080;2024-01-15T03:02:29;1.00;96.50
10133;DHT22;5106;50.926;7.080;2024-01-15T03:04:57;1.10;96.50
10133;DHT22;5106;50.926;7.080;2024-01-15T03:07:22;1.10;96.50
10133;DHT22;5106;50.926;7.080;2024-01-15T03:09:48;1.10;96.50
10133;DHT22;5106;50.926;7.080;2024-01-15T03:12:14;1.10;96.50
10133;DHT22;5106;50.926;7.080;2024-01-15T03:14:39;1.10;96.50
10133;DHT22;5106;50.926;7.080;2024-01-15T03:17:05;1.10;96.50
10133;DHT22;5106;50.926;7.080;2024-01-15T03:19:30;1.10;96.50
10133;DHT22;5106;50.926;7.080;2024-01-15T03:21:56;1.10;96.50
10133;DHT22;5106;50.926;7.080;2024-01-15T03:24:22;1.10;96.50
10133;DHT22;5106;50.926;7.080;2024-01-15T03:26:47;1.10;96.50
10133;DHT22;5106;50.926;7.080;2024-01-15T03:29:13;1.10;96.50
10133;DHT22;5106;50.926;7.080;2024-01-15T03:31:38;1.10;96.50
10133;DHT22;5106;50.926;7.080;2024-01-15T03:34:04;1.10;96.50
10133;DHT22;5106;50.926;7.080;2024-01-15T03:36:30;1.10;96.50
10133;DHT22;5106;50.926;7.080;2024-01-15T03:38:55;1.10;96.50
10133;DHT22;5106;50.926;7.080;2024-01-15T03:41:21;1.00;96.50
10133;DHT22;5106;50.926;7.080;2024-01-15T03:43:46;1.00;96.50
10133;DHT22;5106;50.926;7.080;2024-01-15T03:46:12;1.00;96.50
10133;DHT22;5106;50.926;7.080;2024-01-15T03:48:38;1.10;96.50
10133;DHT22;5106;50.926;7.080;2024-01-15T03:51:03;1.00;96.50
10133;DHT22;5106;50.926;7.080;2024-01-15T03:53:29;1.00;96.50
10133;DHT22;5106;50.926;7.080;2024-01-15T03:55:55;1.10;96.50
10133;DHT22;5106;50.926;7.080;2024-01-15T03:58:20;1.10;96.50
10133;DHT22;5106;50.926;7.080;2024-01-15T04:00:46;1.10;96.50
10133;DHT22;5106;50.926;7.080;2024-01-15T04:03:11;1.10;96.50
10133;DHT22;5106;50.926;7.080;2024-01-15T04:05:38;1.10;96.50
10133;DHT22;5106;50.926;7.080;2024-01-15T04:08:04;1.10;96.50
10133;DHT22;5106;50.926;7.080;2024-01-15T04:10:30;1.10;96.50
10133;DHT22;5106;50.926;7.080;2024-01-15T04:12:55;1.10;96.50
10133;DHT22;5106;50.926;7.080;2024-01-15T04:15:21;1.20;96.50
10133;DHT22;5106;50.926;7.080;2024-01-15T04:17:46;1.20;96.50
10133;DHT22;5106;50.926;7.080;2024-01-15T04:20:12;1.20;96.50
10133;DHT22;5106;50.926;7.080;2024-01-15T04:22:37;1.20;96.50
10133;DHT22;5106;50.926;7.080;2024-01-15T04:25:06;1.20;96.50
10133;DHT22;5106;50.926;7.080;2024-01-15T04:27:32;1.20;96.50
10133;DHT22;5106;50.926;7.080;2024-01-15T04:29:58;1.20;96.50
10133;DHT22;5106;50.926;7.080;2024-01-15T04:32:23;1.20;96.50
10133;DHT22;5106;50.926;7.080;2024-01-15T04:34:49;1.20;96.50
10133;DHT22;5106;50.926;7.080;2024-01-15T04:37:14;1.20;96.50
10133;DHT22;5106;50.926;7.080;2024-01-15T04:39:40;1.20;96.50
10133;DHT22;5106;50.926;7.080;2024-01-15T04:42:05;1.20;96.50
10133;DHT22;5106;50.926;7.080;2024-01-15T04:44:31;1.20;96.50
10133;DHT22;5106;50.926;7.080;2024-01-15T04:46:57;1.20;96.50
10133;DHT22;5106;50.926;7.080;2024-01-15T04:49:22;1.20;96.50
10133;DHT22;5106;50.926;7.080;2024-01-15T04:51:48;1.20;96.50
10133;DHT22;5106;50.926;7.080;2024-01-15T04:54:13;1.20;96.50
10133;DHT22;5106;50.926;7.080;2024-01-15T04:56:43;1.20;96.50
10133;DHT22;5106;50.926;7.080;2024-01-15T04:59:09;1.30;96.50
10133;DHT22;5106;50.926;7.080;2024-01-15T05:01:34;1.30;96.50
10133;DHT22;5106;50.926;7.080;2024-01-15T05:04:00;1.30;96.50
10133;DHT22;5106;50.926;7.080;2024-01-15T05:06:26;1.30;96.50
10133;DHT22;5106;50.926;7.080;2024-01-15T05:08:51;1.40;96.50
10133;DHT22;5106;50.926;7.080;2024-01-15T05:11:23;1.40;96.50
10133;DHT22;5106;50.926;7.080;2024-01-15T05:13:48;1.40;96.50
10133;DHT22;5106;50.926;7.080;2024-01-15T05:16:14;1.40;96.50
10133;DHT22;5106;50.926;7.080;2024-01-15T05:18:39;1.40;96.50
10133;DHT22;5106;50.926;7.080;2024-01-15T05:21:05;1.40;96.50
10133;DHT22;5106;50.926;7.080;2024-01-15T05:23:34;1.50;96.50
10133;DHT22;5106;50.926;7.080;2024-01-15T05:26:02;1.50;96.50
10133;DHT22;5106;50.926;7.080;2024-01-15T05:28:28;1.50;96.50
10133;DHT22;5106;50.926;7.080;2024-01-15T05:30:53;1.50;96.50
10133;DHT22;5106;50.926;7.080;2024-01-15T05:33:21;1.50;96.50
10133;DHT22;5106;50.926;7.080;2024-01-15T05:35:47;1.50;96.50
10133;DHT22;5106;50.926;7.080;2024-01-15T05:38:14;1.50;96.50
10133;DHT22;5106;50.926;7.080;2024-01-15T05:40:40;1.50;96.50
10133;DHT22;5106;50.926;7.080;2024-01-15T05:43:05;1.50;96.50
10133;DHT22;5106;50.926;7.080;2024-01-15T05:45:31;1.50;96.50
10133;DHT22;5106;50.926;7.080;2024-01-15T05:47:56;1.50;96.50
10133;DHT22;5106;50.926;7.080;2024-01-15T05:50:22;1.60;96.50
10133;DHT22;5106;50.926;7.080;2024-01-15T05:52:48;1.60;96.50
10133;DHT22;5106;50.926;7.080;2024-01-15T05:55:13;1.60;96.50
10133;DHT22;5106;50.926;7.080;2024-01-15T05:57:39;1.60;96.50
10133;DHT22;5106;50.926;7.080;2024-01-15T06:00:05;1.60;96.50
10133;DHT22;5106;50.926;7.080;2024-01-15T06:02:31;1.60;96.50
10133;DHT22;5106;50.926;7.080;2024-01-15T06:04:57;1.50;96.50
10133;DHT22;5106;50.926;7.080;2024-01-15T06:07:23;1.50;96.50
10133;DHT22;5106;50.926;7.080;2024-01-15T06:09:48;1.40;96.50
10133;DHT22;5106;50.926;7.080;2024-01-15T06:12:14;1.40;96.50
10133;DHT22;5106;50.926;7.080;2024-01-15T06:14:57;1.40;96.50
10133;DHT22;5106;50.926;7.080;2024-01-15T06:17:23;1.30;96.50
10133;DHT22;5106;50.926;7.080;2024-01-15T06:19:49;1.40;96.50
10133;DHT22;5106;50.926;7.080;2024-01-15T06:22:14;1.40;96.50
10133;DHT22;5106;50.926;7.080;2024-01-15T06:24:41;1.40;96.50
10133;DHT22;5106;50.926;7.080;2024-01-15T06:27:07;1.40;96.50
10133;DHT22;5106;50.926;7.080;2024-01-15T06:29:32;1.40;96.50
10133;DHT22;5106;50.926;7.080;2024-01-15T06:31:58;1.40;96.50
10133;DHT22;5106;50.926;7.080;2024-01-15T06:34:23;1.40;96.50
10133;DHT22;5106;50.926;7.080;2024-01-15T06:36:49;1.50;96.50
10133;DHT22;5106;50.926;7.080;2024-01-15T06:39:15;1.50;96.50
10133;DHT22;5106;50.926;7.080;2024-01-15T06:41:40;1.50;96.50
10133;DHT22;5106;50.926;7.080;2024-01-15T06:44:12;1.50;96.50
10133;DHT22;5106;50.926;7.080;2024-01-15T06:46:44;1.50;96.50
10133;DHT22;5106;50.926;7.080;2024-01-15T06:49:11;1.50;96.50
10133;DHT22;5106;50.926;7.080;2024-01-15T06:51:37;1.50;96.50
10133;DHT22;5106;50.926;7.080;2024-01-15T06:54:02;1.50;96.50
10133;DHT22;5106;50.926;7.080;2024-01-15T06:56:28;1.50;96.50
10133;DHT22;5106;50.926;7.080;2024-01-15T06:58:53;1.50;96.50
10133;DHT22;5106;50.926;7.080;2024-01-15T07:01:19;1.50;96.50
10133;DHT22;5106;50.926;7.080;2024-01-15T07:03:45;1.50;96.50
10133;DHT22;5106;50.926;7.080;2024-01-15T07:06:11;1.50;96.50
10133;DHT22;5106;50.926;7.080;2024-01-15T07:08:37;1.50;96.50
10133;DHT22;5106;50.926;7.080;2024-01-15T07:11:04;1.60;96.50
10133;DHT22;5106;50.926;7.080;2024-01-15T07:13:30;1.60;96.50
10133;DHT22;5106;50.926;7.080;2024-01-15T07:15:56;1.50;96.50
10133;DHT22;5106;50.926;7.080;2024-01-15T07:18:22;1.50;96.50
10133;DHT22;5106;50.926;7.080;2024-01-15T07:20:47;1.50;96.50
10133;DHT22;5106;50.926;7.080;2024-01-15T07:23:13;1.50;96.50
10133;DHT22;5106;50.926;7.080;2024-01-15T07:25:38;1.50;96.50
10133;DHT22;5106;50.926;7.080;2024-01-15T07:28:04;1.50;96.50
10133;DHT22;5106;50.926;7.080;2024-01-15T07:30:30;1.50;96.50
10133;DHT22;5106;50.926;7.080;2024-01-15T07:32:56;1.50;96.50
10133;DHT22;5106;50.926;7.080;2024-01-15T07:35:21;1.50;96.50
10133;DHT22;5106;50.926;7.080;2024-01-15T07:37:47;1.50;96.50
10133;DHT22;5106;50.926;7.080;2024-01-15T07:40:13;1.50;96.50
10133;DHT22;5106;50.926;7.080;2024-01-15T07:42:38;1.50;96.50
10133;DHT22;5106;50.926;7.080;2024-01-15T07:45:04;1.50;96.50
10133;DHT22;5106;50.926;7.080;2024-01-15T07:47:30;1.50;96.50
10133;DHT22;5106;50.926;7.080;2024-01-15T07:49:56;1.50;96.50
10133;DHT22;5106;50.926;7.080;2024-01-15T07:52:21;1.50;96.50
10133;DHT22;5106;50.926;7.080;2024-01-15T07:54:47;1.50;96.50
10133;DHT22;5106;50.926;7.080;2024-01-15T07:57:13;1.60;96.50
10133;DHT22;5106;50.926;7.080;2024-01-15T07:59:38;1.60;96.50
10133;DHT22;5106;50.926;7.080;2024-01-15T08:02:05;1.60;96.50
10133;DHT22;5106;50.926;7.080;2024-01-15T08:04:31;1.60;96.50
10133;DHT22;5106;50.926;7.080;2024-01-15T08:06:57;1.60;96.50
10133;DHT22;5106;50.926;7.080;2024-01-15T08:09:22;1.60;96.50
10133;DHT22;5106;50.926;7.080;2024-01-15T08:11:48;1.60;96.50
10133;DHT22;5106;50.926;7.080;2024-01-15T08:14:18;1.70;96.50
10133;DHT22;5106;50.926;7.080;2024-01-15T08:16:43;1.70;96.50
10133;DHT22;5106;50.926;7.080;2024-01-15T08:19:09;1.70;96.50
10133;DHT22;5106;50.926;7.080;2024-01-15T08:21:34;1.70;96.50
10133;DHT22;5106;50.926;7.080;2024-01-15T08:24:01;1.70;96.50
10133;DHT22;5106;50.926;7.080;2024-01-15T08:26:27;1.70;96.50
10133;DHT22;5106;50.926;7.080;2024-01-15T08:28:53;1.70;96.50
10133;DHT22;5106;50.926;7.080;2024-01-15T08:31:19;1.80;96.50
10133;DHT22;5106;50.926;7.080;2024-01-15T08:33:44;1.80;96.50
10133;DHT22;5106;50.926;7.080;2024-01-15T08:36:10;1.80;96.50
10133;DHT22;5106;50.926;7.080;2024-01-15T08:38:36;1.90;96.50
10133;DHT22;5106;50.926;7.080;2024-01-15T08:41:01;1.90;96.50
10133;DHT22;5106;50.926;7.080;2024-01-15T08:43:27;1.90;96.50
10133;DHT22;5106;50.926;7.080;2024-01-15T08:45:53;1.90;96.50
10133;DHT22;5106;50.926;7.080;2024-01-15T08:48:19;1.90;96.50
10133;DHT22;5106;50.926;7.080;2024-01-15T08:50:45;1.90;96.50
10133;DHT22;5106;50.926;7.080;2024-01-15T08:53:13;1.90;96.50
10133;DHT22;5106;50.926;7.080;2024-01-15T08:55:39;1.90;96.50
10133;DHT22;5106;50.926;7.080;2024-01-15T08:58:07;1.90;96.50
10133;DHT22;5106;50.926;7.080;2024-01-15T09:00:33;1.90;96.50
10133;DHT22;5106;50.926;7.080;2024-01-15T09:02:59;1.90;96.50
10133;DHT22;5106;50.926;7.080;2024-01-15T09:05:24;1.90;96.50
10133;DHT22;5106;50.926;7.080;2024-01-15T09:07:50;1.90;96.50
10133;DHT22;5106;50.926;7.080;2024-01-15T09:10:18;1.90;96.50
10133;DHT22;5106;50.926;7.080;2024-01-15T09:12:43;1.90;96.50
10133;DHT22;5106;50.926;7.080;2024-01-15T09:15:09;1.80;96.50
10133;DHT22;5106;50.926;7.080;2024-01-15T09:17:34;1.80;96.50
10133;DHT22;5106;50.926;7.080;2024-01-15T09:20:00;1.80;96.50
10133;DHT22;5106;50.926;7.080;2024-01-15T09:22:26;1.80;96.50
10133;DHT22;5106;50.926;7.080;2024-01-15T09:24:52;1.80;96.50
10133;DHT22;5106;50.926;7.080;2024-01-15T09:27:18;1.80;96.50
10133;DHT22;5106;50.926;7.080;2024-01-15T09:29:43;1.80;96.50
10133;DHT22;5106;50.926;7.080;2024-01-15T09:32:11;1.80;96.50
10133;DHT22;5106;50.926;7.080;2024-01-15T09:34:37;1.80;96.50
10133;DHT22;5106;50.926;7.080;2024-01-15T09:37:03;1.70;96.50
10133;DHT22;5106;50.926;7.080;2024-01-15T09:39:29;1.70;96.50
10133;DHT22;5106;50.926;7.080;2024-01-15T09:41:56;1.70;96.50
10133;DHT22;5106;50.926;7.080;2024-01-15T09:44:21;1.60;96.50
10133;DHT22;5106;50.926;7.080;2024-01-15T09:46:48;1.60;96.50
10133;DHT22;5106;50.926;7.080;2024-01-15T09:49:16;1.50;96.50
10133;DHT22;5106;50.926;7.080;2024-01-15T09:51:42;1.50;96.50
10133;DHT22;5106;50.926;7.080;2024-01-15T09:54:08;1.40;96.50
10133;DHT22;5106;50.926;7.080;2024-01-15T09:56:34;1.40;96.50
10133;DHT22;5106;50.926;7.080;2024-01-15T09:59:01;1.40;96.50
10133;DHT22;5106;50.926;7.080;2024-01-15T10:01:28;1.30;96.50
10133;DHT22;5106;50.926;7.080;2024-01-15T10:03:54;1.30;96.50
10133;DHT22;5106;50.926;7.080;2024-01-15T10:06:21;1.30;96.50
10133;DHT22;5106;50.926;7.080;2024-01-15T10:08:51;1.20;96.50
10133;DHT22;5106;50.926;7.080;2024-01-15T10:11:17;1.20;96.50
10133;DHT22;5106;50.926;7.080;2024-01-15T10:13:46;1.20;96.50
10133;DHT22;5106;50.926;7.080;2024-01-15T10:16:12;1.20;96.50
10133;DHT22;5106;50.926;7.080;2024-01-15T10:18:38;1.20;96.50
10133;DHT22;5106;50.926;7.080;2024-01-15T10:21:06;1.20;96.50
10133;DHT22;5106;50.926;7.080;2024-01-15T10:23:32;1.20;96.50
10133;DHT22;5106;50.926;7.080;2024-01-15T10:25:58;1.20;96.50
10133;DHT22;5106;50.926;7.080;2024-01-15T10:28:26;1.20;96.50
10133;DHT22;5106;50.926;7.080;2024-01-15T10:30:56;1.20;96.50
10133;DHT22;5106;50.926;7.080;2024-01-15T10:33:22;1.20;96.50
10133;DHT22;5106;50.926;7.080;2024-01-15T10:35:54;1.20;96.50
10133;DHT22;5106;50.926;7.080;2024-01-15T10:38:23;1.20;96.50
10133;DHT22;5106;50.926;7.080;2024-01-15T10:40:56;1.10;96.50
10133;DHT22;5106;50.926;7.080;2024-01-15T10:43:22;1.10;96.50
10133;DHT22;5106;50.926;7.080;2024-01-15T10:45:49;1.10;96.50
10133;DHT22;5106;50.926;7.080;2024-01-15T10:48:17;1.10;96.50
10133;DHT22;5106;50.926;7.080;2024-01-15T10:50:46;1.10;96.50
10133;DHT22;5106;50.926;7.080;2024-01-15T10:53:16;1.10;96.50
10133;DHT22;5106;50.926;7.080;2024-01-15T10:55:42;1.20;96.50
10133;DHT22;5106;50.926;7.080;2024-01-15T10:58:09;1.20;96.50
10133;DHT22;5106;50.926;7.080;2024-01-15T11:00:38;1.20;96.50
10133;DHT22;5106;50.926;7.080;2024-01-15T11:03:05;1.20;96.50
10133;DHT22;5106;50.926;7.080;2024-01-15T11:05:46;1.20;96.50
10133;DHT22;5106;50.926;7.080;2024-01-15T11:08:13;1.10;96.50
10133;DHT22;5106;50.926;7.080;2024-01-15T11:13:19;1.00;96.50
10133;DHT22;5106;50.926;7.080;2024-01-15T11:16:06;1.00;96.50
10133;DHT22;5106;50.926;7.080;2024-01-15T11:18:34;1.00;96.50
10133;DHT22;5106;50.926;7.080;2024-01-15T11:23:44;1.10;96.50
10133;DHT22;5106;50.926;7.080;2024-01-15T11:26:31;1.10;96.50
10133;DHT22;5106;50.926;7.080;2024-01-15T11:28:58;1.10;96.50
10133;DHT22;5106;50.926;7.080;2024-01-15T11:31:28;1.10;96.50
10133;DHT22;5106;50.926;7.080;2024-01-15T11:33:54;1.20;96.50
10133;DHT22;5106;50.926;7.080;2024-01-15T11:36:22;1.20;96.50
10133;DHT22;5106;50.926;7.080;2024-01-15T11:42:02;1.30;96.50
10133;DHT22;5106;50.926;7.080;2024-01-15T11:44:30;1.30;96.50
10133;DHT22;5106;50.926;7.080;2024-01-15T11:47:03;1.30;96.50
10133;DHT22;5106;50.926;7.080;2024-01-15T11:52:20;1.40;96.50
10133;DHT22;5106;50.926;7.080;2024-01-15T11:55:07;1.40;96.50
10133;DHT22;5106;50.926;7.080;2024-01-15T11:58:08;1.40;96.50
10133;DHT22;5106;50.926;7.080;2024-01-15T12:00:34;1.40;96.50
10133;DHT22;5106;50.926;7.080;2024-01-15T12:02:59;1.40;96.50
10133;DHT22;5106;50.926;7.080;2024-01-15T12:05:27;1.40;96.50
10133;DHT22;5106;50.926;7.080;2024-01-15T12:07:53;1.40;96.50
10133;DHT22;5106;50.926;7.080;2024-01-15T12:10:20;1.50;96.50
10133;DHT22;5106;50.926;7.080;2024-01-15T12:13:05;1.40;96.50
10133;DHT22;5106;50.926;7.080;2024-01-15T12:15:31;1.40;96.50
10133;DHT22;5106;50.926;7.080;2024-01-15T12:17:58;1.50;96.50
10133;DHT22;5106;50.926;7.080;2024-01-15T12:20:25;1.50;96.50
10133;DHT22;5106;50.926;7.080;2024-01-15T12:22:51;1.50;96.50
10133;DHT22;5106;50.926;7.080;2024-01-15T12:25:17;1.50;96.50
10133;DHT22;5106;50.926;7.080;2024-01-15T12:27:43;1.50;96.50
10133;DHT22;5106;50.926;7.080;2024-01-15T12:30:11;1.50;96.50
10133;DHT22;5106;50.926;7.080;2024-01-15T12:32:37;1.50;96.50
10133;DHT22;5106;50.926;7.080;2024-01-15T12:35:03;1.60;96.50
10133;DHT22;5106;50.926;7.080;2024-01-15T12:37:30;1.60;96.50
10133;DHT22;5106;50.926;7.080;2024-01-15T12:39:55;1.70;96.50
10133;DHT22;5106;50.926;7.080;2024-01-15T12:42:21;1.80;96.50
10133;DHT22;5106;50.926;7.080;2024-01-15T12:44:47;1.80;96.50
10133;DHT22;5106;50.926;7.080;2024-01-15T12:47:13;1.90;96.50
10133;DHT22;5106;50.926;7.080;2024-01-15T12:49:39;1.90;96.50
10133;DHT22;5106;50.926;7.080;2024-01-15T12:52:08;1.90;96.50
10133;DHT22;5106;50.926;7.080;2024-01-15T12:54:34;1.90;96.50
10133;DHT22;5106;50.926;7.080;2024-01-15T12:57:00;2.00;96.50
10133;DHT22;5106;50.926;7.080;2024-01-15T12:59:25;2.00;96.50
10133;DHT22;5106;50.926;7.080;2024-01-15T13:01:51;2.00;96.50
10133;DHT22;5106;50.926;7.080;2024-01-15T13:04:24;2.00;96.50
10133;DHT22;5106;50.926;7.080;2024-01-15T13:06:50;2.00;96.50
10133;DHT22;5106;50.926;7.080;2024-01-15T13:09:17;2.00;96.50
10133;DHT22;5106;50.926;7.080;2024-01-15T13:11:46;2.10;96.50
10133;DHT22;5106;50.926;7.080;2024-01-15T13:14:12;2.10;96.50
10133;DHT22;5106;50.926;7.080;2024-01-15T13:16:41;2.10;96.50
10133;DHT22;5106;50.926;7.080;2024-01-15T13:19:10;2.10;96.50
10133;DHT22;5106;50.926;7.080;2024-01-15T13:21:40;2.20;96.50
10133;DHT22;5106;50.926;7.080;2024-01-15T13:24:06;2.20;96.50
10133;DHT22;5106;50.926;7.080;2024-01-15T13:26:33;2.20;96.50
10133;DHT22;5106;50.926;7.080;2024-01-15T13:29:02;2.20;96.50
10133;DHT22;5106;50.926;7.080;2024-01-15T13:31:29;2.20;96.50
10133;DHT22;5106;50.926;7.080;2024-01-15T13:33:55;2.20;96.50
10133;DHT22;5106;50.926;7.080;2024-01-15T13:36:24;2.20;96.50
10133;DHT22;5106;50.926;7.080;2024-01-15T13:38:51;2.20;96.50
10133;DHT22;5106;50.926;7.080;2024-01-15T13:41:17;2.20;96.50
10133;DHT22;5106;50.926;7.080;2024-01-15T13:44:03;2.20;96.50
10133;DHT22;5106;50.926;7.080;2024-01-15T13:46:29;2.20;96.50
10133;DHT22;5106;50.926;7.080;2024-01-15T13:48:55;2.10;96.50
10133;DHT22;5106;50.926;7.080;2024-01-15T13:51:24;2.10;96.50
10133;DHT22;5106;50.926;7.080;2024-01-15T13:53:50;2.10;96.50
10133;DHT22;5106;50.926;7.080;2024-01-15T13:56:16;2.10;96.50
10133;DHT22;5106;50.926;7.080;2024-01-15T13:58:42;2.10;96.50
10133;DHT22;5106;50.926;7.080;2024-01-15T14:01:08;2.10;96.50
10133;DHT22;5106;50.926;7.080;2024-01-15T14:03:34;2.00;96.50
10133;DHT22;5106;50.926;7.080;2024-01-15T14:06:00;2.10;96.50
10133;DHT22;5106;50.926;7.080;2024-01-15T14:08:28;2.10;96.50
10133;DHT22;5106;50.926;7.080;2024-01-15T14:10:54;2.00;96.50
10133;DHT22;5106;50.926;7.080;2024-01-15T14:13:21;2.00;96.50
10133;DHT22;5106;50.926;7.080;2024-01-15T14:15:47;2.00;96.50
10133;DHT22;5106;50.926;7.080;2024-01-15T14:18:15;2.00;96.50
10133;DHT22;5106;50.926;7.080;2024-01-15T14:20:40;2.00;96.50
10133;DHT22;5106;50.926;7.080;2024-01-15T14:23:06;1.90;96.50
10133;DHT22;5106;50.926;7.080;2024-01-15T14:25:32;1.70;96.50
10133;DHT22;5106;50.926;7.080;2024-01-15T14:27:57;1.70;96.50
10133;DHT22;5106;50.926;7.080;2024-01-15T14:30:23;1.60;96.50
10133;DHT22;5106;50.926;7.080;2024-01-15T14:32:49;1.60;96.50
10133;DHT22;5106;50.926;7.080;2024-01-15T14:35:14;1.60;96.50
10133;DHT22;5106;50.926;7.080;2024-01-15T14:37:40;1.60;96.50
10133;DHT22;5106;50.926;7.080;2024-01-15T14:40:06;1.70;96.50
10133;DHT22;5106;50.926;7.080;2024-01-15T14:42:36;1.70;96.50
10133;DHT22;5106;50.926;7.080;2024-01-15T14:47:38;1.70;96.50
10133;DHT22;5106;50.926;7.080;2024-01-15T14:50:08;1.80;96.50
10133;DHT22;5106;50.926;7.080;2024-01-15T14:52:35;1.80;96.50
10133;DHT22;5106;50.926;7.080;2024-01-15T14:55:02;1.80;96.50
10133;DHT22;5106;50.926;7.080;2024-01-15T14:57:27;1.90;96.50
10133;DHT22;5106;50.926;7.080;2024-01-15T14:59:53;1.90;96.50
10133;DHT22;5106;50.926;7.080;2024-01-15T15:02:19;1.90;96.50
10133;DHT22;5106;50.926;7.080;2024-01-15T15:04:45;1.80;96.50
10133;DHT22;5106;50.926;7.080;2024-01-15T15:07:11;1.80;96.50
10133;DHT22;5106;50.926;7.080;2024-01-15T15:09:36;1.70;96.50
10133;DHT22;5106;50.926;7.080;2024-01-15T15:12:06;1.70;96.50
10133;DHT22;5106;50.926;7.080;2024-01-15T15:14:32;1.70;96.50
10133;DHT22;5106;50.926;7.080;2024-01-15T15:17:05;1.70;96.50
10133;DHT22;5106;50.926;7.080;2024-01-15T15:19:32;1.70;96.50
10133;DHT22;5106;50.926;7.080;2024-01-15T15:21:58;1.70;96.50
10133;DHT22;5106;50.926;7.080;2024-01-15T15:24:24;1.70;96.50
10133;DHT22;5106;50.926;7.080;2024-01-15T15:26:49;1.70;96.50
10133;DHT22;5106;50.926;7.080;2024-01-15T15:29:15;1.70;96.50
10133;DHT22;5106;50.926;7.080;2024-01-15T15:31:42;1.70;96.50
10133;DHT22;5106;50.926;7.080;2024-01-15T15:34:08;1.70;96.50
10133;DHT22;5106;50.926;7.080;2024-01-15T15:36:33;1.70;96.50
10133;DHT22;5106;50.926;7.080;2024-01-15T15:38:59;1.70;96.50
10133;DHT22;5106;50.926;7.080;2024-01-15T15:41:24;1.70;96.50
10133;DHT22;5106;50.926;7.080;2024-01-15T15:43:51;1.70;96.50
10133;DHT22;5106;50.926;7.080;2024-01-15T15:46:17;1.70;96.50
10133;DHT22;5106;50.926;7.080;2024-01-15T15:48:42;1.70;96.50
10133;DHT22;5106;50.926;7.080;2024-01-15T15:51:09;1.70;96.50
10133;DHT22;5106;50.926;7.080;2024-01-15T15:53:34;1.70;96.50
10133;DHT22;5106;50.926;7.080;2024-01-15T15:56:00;1.60;96.50
10133;DHT22;5106;50.926;7.080;2024-01-15T15:58:25;1.50;96.50
10133;DHT22;5106;50.926;7.080;2024-01-15T16:00:51;1.40;96.50
10133;DHT22;5106;50.926;7.080;2024-01-15T16:03:17;1.30;96.50
10133;DHT22;5106;50.926;7.080;2024-01-15T16:05:44;1.20;96.50
10133;DHT22;5106;50.926;7.080;2024-01-15T16:08:09;1.20;96.50
10133;DHT22;5106;50.926;7.080;2024-01-15T16:10:35;1.20;96.50
10133;DHT22;5106;50.926;7.080;2024-01-15T16:13:00;1.10;96.50